createdAt,value
2017-02-22T00:00:06.811Z,1003.02
2017-02-22T00:00:17.222Z,1002.98
2017-02-22T00:00:27.207Z,1002.95
2017-02-22T00:00:37.203Z,1002.9
2017-02-22T00:00:47.212Z,1002.95
2017-02-22T00:00:57.188Z,1002.99
2017-02-22T00:01:07.184Z,1002.92
2017-02-22T00:01:17.185Z,1002.99
2017-02-22T00:01:27.175Z,1002.97
2017-02-22T00:01:37.167Z,1003
2017-02-22T00:01:47.165Z,1003
2017-02-22T00:01:57.155Z,1002.93
2017-02-22T00:02:06.736Z,1002.91
2017-02-22T00:02:17.138Z,1002.93
2017-02-22T00:02:27.131Z,1002.91
2017-02-22T00:02:37.131Z,1002.9
2017-02-22T00:02:47.121Z,1002.93
2017-02-22T00:02:57.122Z,1002.97
2017-02-22T00:03:07.111Z,1002.95
2017-02-22T00:03:17.112Z,1002.96
2017-02-22T00:03:27.387Z,1002.99
2017-02-22T00:03:37.107Z,1002.96
2017-02-22T00:03:47.102Z,1002.93
2017-02-22T00:03:57.095Z,1002.97
2017-02-22T00:04:06.660Z,1002.98
2017-02-22T00:04:17.085Z,1002.98
2017-02-22T00:04:27.074Z,1002.97
2017-02-22T00:04:37.059Z,1002.98
2017-02-22T00:04:47.061Z,1003
2017-02-22T00:04:57.046Z,1002.98
2017-02-22T00:05:07.048Z,1002.85
2017-02-22T00:05:17.038Z,1002.92
2017-02-22T00:05:27.027Z,1002.89
2017-02-22T00:05:37.023Z,1002.94
2017-02-22T00:05:47.017Z,1002.95
2017-02-22T00:05:57.010Z,1002.9
2017-02-22T00:06:07.000Z,1002.9
2017-02-22T00:06:17.286Z,1002.92
2017-02-22T00:06:27.005Z,1002.95
2017-02-22T00:06:37.003Z,1002.97
2017-02-22T00:06:46.980Z,1002.86
2017-02-22T00:06:56.969Z,1002.92
2017-02-22T00:07:06.969Z,1002.9
2017-02-22T00:07:16.961Z,1002.87
2017-02-22T00:07:26.956Z,1002.95
2017-02-22T00:07:36.951Z,1002.92
2017-02-22T00:07:46.946Z,1002.89
2017-02-22T00:07:56.942Z,1002.89
2017-02-22T00:08:06.946Z,1002.92
2017-02-22T00:08:16.921Z,1002.92
2017-02-22T00:08:26.923Z,1002.88
2017-02-22T00:08:36.922Z,1002.94
2017-02-22T00:08:46.906Z,1002.9
2017-02-22T00:08:56.899Z,1002.87
2017-02-22T00:09:06.903Z,1002.86
2017-02-22T00:09:17.175Z,1002.9
2017-02-22T00:09:26.881Z,1002.99
2017-02-22T00:09:36.889Z,1002.89
2017-02-22T00:09:46.868Z,1002.93
2017-02-22T00:09:56.876Z,1002.87
2017-02-22T00:10:06.439Z,1002.96
2017-02-22T00:10:16.859Z,1002.83
2017-02-22T00:10:26.859Z,1002.88
2017-02-22T00:10:36.856Z,1002.88
2017-02-22T00:10:46.843Z,1002.85
2017-02-22T00:10:56.825Z,1002.84
2017-02-22T00:11:06.829Z,1002.89
2017-02-22T00:11:16.693Z,1002.88
2017-02-22T00:11:26.819Z,1002.79
2017-02-22T00:11:37.084Z,1002.89
2017-02-22T00:11:47.090Z,1002.81
2017-02-22T00:11:56.797Z,1002.76
2017-02-22T00:12:06.804Z,1002.86
2017-02-22T00:12:16.791Z,1002.79
2017-02-22T00:12:26.775Z,1002.78
2017-02-22T00:12:36.771Z,1002.84
2017-02-22T00:12:47.032Z,1002.73
2017-02-22T00:12:56.351Z,1002.82
2017-02-22T00:13:06.748Z,1002.8
2017-02-22T00:13:16.742Z,1002.86
2017-02-22T00:13:26.749Z,1002.75
2017-02-22T00:13:36.733Z,1002.7
2017-02-22T00:13:46.721Z,1002.65
2017-02-22T00:13:56.719Z,1002.67
2017-02-22T00:14:06.732Z,1002.79
2017-02-22T00:14:16.709Z,1002.69
2017-02-22T00:14:26.985Z,1002.72
2017-02-22T00:14:36.701Z,1002.65
2017-02-22T00:14:46.704Z,1002.69
2017-02-22T00:14:56.697Z,1002.68
2017-02-22T00:15:06.701Z,1002.67
2017-02-22T00:15:16.944Z,1002.74
2017-02-22T00:15:26.667Z,1002.71
2017-02-22T00:15:36.664Z,1002.71
2017-02-22T00:15:47.216Z,1002.66
2017-02-22T00:15:56.666Z,1002.67
2017-02-22T00:16:06.223Z,1002.6
2017-02-22T00:16:16.636Z,1002.73
2017-02-22T00:16:26.636Z,1002.6
2017-02-22T00:16:36.635Z,1002.6
2017-02-22T00:16:46.636Z,1002.58
2017-02-22T00:16:56.626Z,1002.64
2017-02-22T00:17:06.610Z,1002.58
2017-02-22T00:17:16.603Z,1002.6
2017-02-22T00:17:26.887Z,1002.64
2017-02-22T00:17:36.585Z,1002.58
2017-02-22T00:17:45.751Z,1002.63
2017-02-22T00:17:56.866Z,1002.66
2017-02-22T00:18:06.582Z,1002.65
2017-02-22T00:18:16.859Z,1002.62
2017-02-22T00:18:26.581Z,1002.66
2017-02-22T00:18:36.553Z,1002.65
2017-02-22T00:18:46.548Z,1002.73
2017-02-22T00:18:56.540Z,1002.7
2017-02-22T00:19:06.543Z,1002.7
2017-02-22T00:19:16.538Z,1002.71
2017-02-22T00:19:26.517Z,1002.71
2017-02-22T00:19:36.526Z,1002.65
2017-02-22T00:19:46.511Z,1002.67
2017-02-22T00:19:56.514Z,1002.7
2017-02-22T00:20:06.085Z,1002.78
2017-02-22T00:20:16.493Z,1002.64
2017-02-22T00:20:26.483Z,1002.7
2017-02-22T00:20:36.482Z,1002.66
2017-02-22T00:20:46.474Z,1002.65
2017-02-22T00:20:56.472Z,1002.75
2017-02-22T00:21:06.463Z,1002.7
2017-02-22T00:21:16.038Z,1002.73
2017-02-22T00:21:26.452Z,1002.68
2017-02-22T00:21:36.453Z,1002.67
2017-02-22T00:21:46.441Z,1002.63
2017-02-22T00:21:56.013Z,1002.59
2017-02-22T00:22:06.011Z,1002.55
2017-02-22T00:22:16.423Z,1002.54
2017-02-22T00:22:26.424Z,1002.52
2017-02-22T00:22:36.405Z,1002.52
2017-02-22T00:22:46.416Z,1002.57
2017-02-22T00:22:56.391Z,1002.54
2017-02-22T00:23:06.389Z,1002.51
2017-02-22T00:23:16.389Z,1002.46
2017-02-22T00:23:26.389Z,1002.5
2017-02-22T00:23:36.382Z,1002.47
2017-02-22T00:23:46.369Z,1002.47
2017-02-22T00:23:56.376Z,1002.48
2017-02-22T00:24:05.949Z,1002.48
2017-02-22T00:24:15.932Z,1002.4
2017-02-22T00:24:26.345Z,1002.32
2017-02-22T00:24:36.336Z,1002.3
2017-02-22T00:24:46.336Z,1002.27
2017-02-22T00:24:56.320Z,1002.35
2017-02-22T00:25:06.325Z,1002.38
2017-02-22T00:25:15.902Z,1002.31
2017-02-22T00:25:26.594Z,1002.26
2017-02-22T00:25:36.300Z,1002.39
2017-02-22T00:25:46.294Z,1002.43
2017-02-22T00:25:56.289Z,1002.4
2017-02-22T00:26:05.860Z,1002.26
2017-02-22T00:26:16.280Z,1002.34
2017-02-22T00:26:26.292Z,1002.36
2017-02-22T00:26:36.262Z,1002.31
2017-02-22T00:26:46.260Z,1002.44
2017-02-22T00:26:56.262Z,1002.29
2017-02-22T00:27:06.251Z,1002.26
2017-02-22T00:27:15.828Z,1002.29
2017-02-22T00:27:26.231Z,1002.35
2017-02-22T00:27:36.231Z,1002.42
2017-02-22T00:27:46.222Z,1002.32
2017-02-22T00:27:56.223Z,1002.35
2017-02-22T00:28:06.213Z,1002.37
2017-02-22T00:28:16.227Z,1002.22
2017-02-22T00:28:26.213Z,1002.28
2017-02-22T00:28:36.197Z,1002.25
2017-02-22T00:28:46.199Z,1002.27
2017-02-22T00:28:56.476Z,1002.22
2017-02-22T00:29:06.184Z,1002.19
2017-02-22T00:29:16.171Z,1002.21
2017-02-22T00:29:26.168Z,1002.28
2017-02-22T00:29:36.167Z,1002.27
2017-02-22T00:29:45.732Z,1002.25
2017-02-22T00:29:56.163Z,1002.18
2017-02-22T00:30:06.138Z,1002.24
2017-02-22T00:30:16.415Z,1002.16
2017-02-22T00:30:26.422Z,1002.1
2017-02-22T00:30:36.122Z,1002.14
2017-02-22T00:30:46.409Z,1002.16
2017-02-22T00:30:56.113Z,1002.15
2017-02-22T00:31:06.100Z,1002.2
2017-02-22T00:31:16.095Z,1002.16
2017-02-22T00:31:26.090Z,1002.12
2017-02-22T00:31:36.083Z,1002.1
2017-02-22T00:31:46.080Z,1002.13
2017-02-22T00:31:56.070Z,1002.13
2017-02-22T00:32:06.069Z,1002.16
2017-02-22T00:32:16.057Z,1002.19
2017-02-22T00:32:26.064Z,1002.15
2017-02-22T00:32:36.065Z,1002.11
2017-02-22T00:32:46.058Z,1002.1
2017-02-22T00:32:56.048Z,1002.2
2017-02-22T00:33:06.033Z,1002.04
2017-02-22T00:33:16.023Z,1002.12
2017-02-22T00:33:26.026Z,1002.22
2017-02-22T00:33:36.023Z,1002.08
2017-02-22T00:33:46.006Z,1002.2
2017-02-22T00:33:56.036Z,1002.16
2017-02-22T00:34:06.003Z,1002.19
2017-02-22T00:34:15.988Z,1002.11
2017-02-22T00:34:25.980Z,1002.01
2017-02-22T00:34:35.974Z,1002.06
2017-02-22T00:34:45.976Z,1002.04
2017-02-22T00:34:55.963Z,1002.09
2017-02-22T00:35:05.960Z,1002.05
2017-02-22T00:35:15.952Z,1002.15
2017-02-22T00:35:26.225Z,1002.14
2017-02-22T00:35:36.228Z,1002.06
2017-02-22T00:35:45.516Z,1002.11
2017-02-22T00:35:55.935Z,1002.12
2017-02-22T00:36:05.929Z,1002.15
2017-02-22T00:36:15.915Z,1002.16
2017-02-22T00:36:25.914Z,1002.19
2017-02-22T00:36:35.919Z,1002.15
2017-02-22T00:36:45.899Z,1002.15
2017-02-22T00:36:55.902Z,1002.18
2017-02-22T00:37:05.887Z,1002.2
2017-02-22T00:37:15.456Z,1002.13
2017-02-22T00:37:25.888Z,1002.12
2017-02-22T00:37:35.867Z,1002.24
2017-02-22T00:37:45.862Z,1002.11
2017-02-22T00:37:55.880Z,1002.19
2017-02-22T00:38:05.864Z,1002.25
2017-02-22T00:38:15.845Z,1002.15
2017-02-22T00:38:25.852Z,1002.21
2017-02-22T00:38:35.845Z,1002.21
2017-02-22T00:38:45.832Z,1002.13
2017-02-22T00:38:55.820Z,1002.22
2017-02-22T00:39:05.816Z,1002.09
2017-02-22T00:39:16.093Z,1002.13
2017-02-22T00:39:25.818Z,1002.19
2017-02-22T00:39:35.792Z,1002.17
2017-02-22T00:39:45.796Z,1002.11
2017-02-22T00:39:55.794Z,1002.08
2017-02-22T00:40:05.779Z,1002.16
2017-02-22T00:40:15.364Z,1002.17
2017-02-22T00:40:25.774Z,1002.15
2017-02-22T00:40:35.773Z,1002.13
2017-02-22T00:40:45.332Z,1002.17
2017-02-22T00:40:55.753Z,1002.07
2017-02-22T00:41:05.746Z,1002.14
2017-02-22T00:41:15.737Z,1002.14
2017-02-22T00:41:25.737Z,1002.15
2017-02-22T00:41:35.735Z,1002.15
2017-02-22T00:41:45.738Z,1002.06
2017-02-22T00:41:56.000Z,1002.13
2017-02-22T00:42:05.724Z,1002.16
2017-02-22T00:42:15.699Z,1002.13
2017-02-22T00:42:25.711Z,1002.11
2017-02-22T00:42:35.691Z,1002.1
2017-02-22T00:42:45.685Z,1002.12
2017-02-22T00:42:55.693Z,1002.07
2017-02-22T00:43:05.669Z,1002.09
2017-02-22T00:43:15.663Z,1002.09
2017-02-22T00:43:25.657Z,1002.11
2017-02-22T00:43:35.653Z,1002.06
2017-02-22T00:43:45.645Z,1002.13
2017-02-22T00:43:55.649Z,1002.06
2017-02-22T00:44:05.212Z,1001.99
2017-02-22T00:44:15.631Z,1002.05
2017-02-22T00:44:25.641Z,1002.09
2017-02-22T00:44:35.619Z,1002.06
2017-02-22T00:44:45.621Z,1002.13
2017-02-22T00:44:55.609Z,1002.09
2017-02-22T00:45:05.595Z,1002.06
2017-02-22T00:45:15.618Z,1002.01
2017-02-22T00:45:25.585Z,1002.04
2017-02-22T00:45:35.577Z,1002.08
2017-02-22T00:45:45.585Z,1002.06
2017-02-22T00:45:55.567Z,1002.08
2017-02-22T00:46:05.557Z,1002.07
2017-02-22T00:46:15.554Z,1002.07
2017-02-22T00:46:25.559Z,1002.06
2017-02-22T00:46:35.558Z,1002.08
2017-02-22T00:46:45.534Z,1002.14
2017-02-22T00:46:55.535Z,1002.16
2017-02-22T00:47:05.524Z,1002.03
2017-02-22T00:47:15.523Z,1002.12
2017-02-22T00:47:25.511Z,1002.13
2017-02-22T00:47:35.529Z,1002.13
2017-02-22T00:47:45.519Z,1002.15
2017-02-22T00:47:55.504Z,1002.09
2017-02-22T00:48:05.494Z,1002.08
2017-02-22T00:48:15.070Z,1002.08
2017-02-22T00:48:25.475Z,1002.1
2017-02-22T00:48:35.483Z,1002.14
2017-02-22T00:48:45.465Z,1002.14
2017-02-22T00:48:55.466Z,1002.15
2017-02-22T00:49:05.455Z,1002.1
2017-02-22T00:49:15.454Z,1002.22
2017-02-22T00:49:25.442Z,1002.12
2017-02-22T00:49:35.448Z,1002.05
2017-02-22T00:49:45.430Z,1002.05
2017-02-22T00:49:55.423Z,1002.15
2017-02-22T00:50:05.420Z,1001.96
2017-02-22T00:50:15.414Z,1001.98
2017-02-22T00:50:25.403Z,1002.04
2017-02-22T00:50:35.400Z,1002.02
2017-02-22T00:50:45.414Z,1002.05
2017-02-22T00:50:55.388Z,1002.02
2017-02-22T00:51:05.383Z,1002.06
2017-02-22T00:51:15.375Z,1001.97
2017-02-22T00:51:25.377Z,1002.06
2017-02-22T00:51:35.363Z,1002.06
2017-02-22T00:51:45.357Z,1002.08
2017-02-22T00:51:55.356Z,1002.03
2017-02-22T00:52:05.344Z,1002.02
2017-02-22T00:52:14.926Z,1002.04
2017-02-22T00:52:25.345Z,1002.03
2017-02-22T00:52:35.328Z,1002.11
2017-02-22T00:52:45.321Z,1001.99
2017-02-22T00:52:55.316Z,1002.06
2017-02-22T00:53:05.324Z,1002.06
2017-02-22T00:53:14.890Z,1002.11
2017-02-22T00:53:25.294Z,1002.04
2017-02-22T00:53:35.297Z,1002.05
2017-02-22T00:53:45.287Z,1002.11
2017-02-22T00:53:54.861Z,1002.03
2017-02-22T00:54:05.269Z,1002.08
2017-02-22T00:54:14.849Z,1002.06
2017-02-22T00:54:24.981Z,1002.02
2017-02-22T00:54:35.261Z,1002.04
2017-02-22T00:54:45.249Z,1001.89
2017-02-22T00:54:55.251Z,1002.01
2017-02-22T00:55:05.239Z,1002.01
2017-02-22T00:55:15.510Z,1001.99
2017-02-22T00:55:25.234Z,1001.93
2017-02-22T00:55:35.215Z,1002
2017-02-22T00:55:45.509Z,1001.96
2017-02-22T00:55:54.923Z,1002
2017-02-22T00:56:05.215Z,1002.09
2017-02-22T00:56:14.774Z,1002.08
2017-02-22T00:56:25.188Z,1002.01
2017-02-22T00:56:35.188Z,1001.93
2017-02-22T00:56:45.186Z,1001.99
2017-02-22T00:56:55.175Z,1001.99
2017-02-22T00:57:05.176Z,1001.96
2017-02-22T00:57:15.159Z,1002.05
2017-02-22T00:57:25.151Z,1002
2017-02-22T00:57:35.155Z,1001.96
2017-02-22T00:57:45.424Z,1001.91
2017-02-22T00:57:55.437Z,1002.01
2017-02-22T00:58:05.123Z,1002.09
2017-02-22T00:58:15.125Z,1001.99
2017-02-22T00:58:25.116Z,1001.93
2017-02-22T00:58:35.122Z,1002.02
2017-02-22T00:58:45.386Z,1001.93
2017-02-22T00:58:55.104Z,1002
2017-02-22T00:59:05.090Z,1002.02
2017-02-22T00:59:15.095Z,1001.99
2017-02-22T00:59:25.097Z,1001.97
2017-02-22T00:59:35.075Z,1001.92
2017-02-22T00:59:45.068Z,1001.92
2017-02-22T00:59:55.352Z,1001.96
2017-02-22T01:00:05.064Z,1001.94
2017-02-22T01:00:14.642Z,1001.88
2017-02-22T01:00:25.041Z,1001.95
2017-02-22T01:00:35.046Z,1001.96
2017-02-22T01:00:45.050Z,1002
2017-02-22T01:00:55.026Z,1001.94
2017-02-22T01:01:05.026Z,1001.96
2017-02-22T01:01:14.604Z,1001.98
2017-02-22T01:01:25.007Z,1001.93
2017-02-22T01:01:35.001Z,1001.98
2017-02-22T01:01:45.572Z,1001.97
2017-02-22T01:02:03.883Z,1002
2017-02-22T01:02:15.366Z,1001.94
2017-02-22T01:02:23.853Z,1002.02
2017-02-22T01:02:37.328Z,1002
2017-02-22T01:02:43.838Z,1001.97
2017-02-22T01:02:53.838Z,1001.9
2017-02-22T01:03:06.636Z,1001.94
2017-02-22T01:03:15.034Z,1002.03
2017-02-22T01:03:23.815Z,1001.94
2017-02-22T01:03:33.820Z,1002.06
2017-02-22T01:03:43.389Z,1002.06
2017-02-22T01:04:01.423Z,1001.97
2017-02-22T01:04:11.845Z,1001.96
2017-02-22T01:04:21.840Z,1001.93
2017-02-22T01:04:31.823Z,1002.06
2017-02-22T01:04:41.813Z,1001.91
2017-02-22T01:04:51.803Z,1001.98
2017-02-22T01:05:01.798Z,1002.02
2017-02-22T01:05:11.802Z,1001.95
2017-02-22T01:05:21.781Z,1001.95
2017-02-22T01:05:31.371Z,1001.83
2017-02-22T01:05:41.789Z,1001.89
2017-02-22T01:05:51.772Z,1001.92
2017-02-22T01:06:02.059Z,1001.9
2017-02-22T01:06:11.753Z,1001.98
2017-02-22T01:06:21.754Z,1001.93
2017-02-22T01:06:31.740Z,1001.85
2017-02-22T01:06:41.739Z,1001.92
2017-02-22T01:06:51.745Z,1001.83
2017-02-22T01:07:01.726Z,1001.99
2017-02-22T01:07:11.357Z,1001.97
2017-02-22T01:07:21.713Z,1001.94
2017-02-22T01:07:31.999Z,1001.69
2017-02-22T01:07:41.705Z,1001.72
2017-02-22T01:07:51.715Z,1001.88
2017-02-22T01:08:01.704Z,1001.91
2017-02-22T01:08:11.687Z,1002.03
2017-02-22T01:08:21.693Z,1001.92
2017-02-22T01:08:31.672Z,1001.89
2017-02-22T01:08:41.696Z,1001.83
2017-02-22T01:08:51.243Z,1001.84
2017-02-22T01:09:01.656Z,1001.86
2017-02-22T01:09:11.662Z,1001.88
2017-02-22T01:09:21.642Z,1001.93
2017-02-22T01:09:31.638Z,1001.89
2017-02-22T01:09:41.626Z,1001.84
2017-02-22T01:09:51.205Z,1001.85
2017-02-22T01:10:01.619Z,1001.8
2017-02-22T01:10:11.615Z,1001.79
2017-02-22T01:10:21.612Z,1001.8
2017-02-22T01:10:31.181Z,1001.85
2017-02-22T01:10:41.596Z,1001.87
2017-02-22T01:10:51.176Z,1001.79
2017-02-22T01:11:01.584Z,1001.85
2017-02-22T01:11:11.859Z,1001.84
2017-02-22T01:11:21.598Z,1001.78
2017-02-22T01:11:31.837Z,1001.78
2017-02-22T01:12:01.888Z,1001.75
2017-02-22T01:12:11.888Z,1001.79
2017-02-22T01:12:23.360Z,1001.77
2017-02-22T01:12:42.098Z,1001.78
2017-02-22T01:12:52.065Z,1001.79
2017-02-22T01:13:02.063Z,1001.81
2017-02-22T01:13:12.059Z,1001.74
2017-02-22T01:13:22.053Z,1001.77
2017-02-22T01:13:32.052Z,1001.82
2017-02-22T01:13:42.041Z,1001.91
2017-02-22T01:13:52.034Z,1001.79
2017-02-22T01:14:02.045Z,1001.84
2017-02-22T01:14:12.026Z,1001.82
2017-02-22T01:14:22.010Z,1001.84
2017-02-22T01:14:32.009Z,1001.77
2017-02-22T01:14:41.997Z,1001.78
2017-02-22T01:14:52.014Z,1001.79
2017-02-22T01:15:02.001Z,1001.79
2017-02-22T01:15:11.998Z,1001.73
2017-02-22T01:15:21.990Z,1001.78
2017-02-22T01:15:31.688Z,1001.84
2017-02-22T01:15:41.981Z,1001.87
2017-02-22T01:15:51.955Z,1001.79
2017-02-22T01:16:01.959Z,1001.84
2017-02-22T01:16:11.945Z,1001.66
2017-02-22T01:16:21.942Z,1001.81
2017-02-22T01:16:31.529Z,1001.8
2017-02-22T01:16:42.216Z,1001.81
2017-02-22T01:16:51.941Z,1001.81
2017-02-22T01:17:01.930Z,1001.91
2017-02-22T01:17:11.926Z,1001.69
2017-02-22T01:17:21.918Z,1001.87
2017-02-22T01:17:31.494Z,1001.77
2017-02-22T01:17:41.892Z,1001.85
2017-02-22T01:17:51.891Z,1001.82
2017-02-22T01:18:01.926Z,1001.84
2017-02-22T01:18:11.875Z,1001.81
2017-02-22T01:18:21.875Z,1001.79
2017-02-22T01:18:31.592Z,1001.83
2017-02-22T01:18:41.854Z,1001.85
2017-02-22T01:18:51.859Z,1001.82
2017-02-22T01:19:01.857Z,1001.85
2017-02-22T01:19:11.842Z,1001.92
2017-02-22T01:19:21.839Z,1001.81
2017-02-22T01:19:31.836Z,1001.87
2017-02-22T01:19:41.821Z,1001.91
2017-02-22T01:19:51.409Z,1001.82
2017-02-22T01:20:01.813Z,1001.94
2017-02-22T01:20:11.801Z,1001.85
2017-02-22T01:20:21.813Z,1001.82
2017-02-22T01:20:31.811Z,1001.86
2017-02-22T01:20:42.073Z,1001.83
2017-02-22T01:20:51.796Z,1001.86
2017-02-22T01:21:01.774Z,1001.81
2017-02-22T01:21:11.812Z,1001.84
2017-02-22T01:21:21.775Z,1001.8
2017-02-22T01:21:31.772Z,1001.84
2017-02-22T01:21:41.751Z,1001.85
2017-02-22T01:21:51.332Z,1001.82
2017-02-22T01:22:01.744Z,1001.72
2017-02-22T01:22:11.741Z,1001.8
2017-02-22T01:22:21.732Z,1001.8
2017-02-22T01:22:31.717Z,1001.81
2017-02-22T01:22:41.725Z,1001.81
2017-02-22T01:22:51.721Z,1001.82
2017-02-22T01:23:01.701Z,1001.81
2017-02-22T01:23:11.701Z,1001.84
2017-02-22T01:23:21.690Z,1001.74
2017-02-22T01:23:31.715Z,1001.75
2017-02-22T01:23:41.679Z,1001.73
2017-02-22T01:23:51.672Z,1001.82
2017-02-22T01:24:01.678Z,1001.77
2017-02-22T01:24:11.240Z,1001.73
2017-02-22T01:24:21.659Z,1001.79
2017-02-22T01:24:31.234Z,1001.78
2017-02-22T01:24:41.662Z,1001.8
2017-02-22T01:24:51.217Z,1001.8
2017-02-22T01:25:01.633Z,1001.82
2017-02-22T01:25:11.633Z,1001.82
2017-02-22T01:25:21.624Z,1001.82
2017-02-22T01:25:31.908Z,1001.77
2017-02-22T01:25:41.610Z,1001.75
2017-02-22T01:25:51.597Z,1001.81
2017-02-22T01:26:01.604Z,1001.79
2017-02-22T01:26:11.589Z,1001.71
2017-02-22T01:26:21.586Z,1001.77
2017-02-22T01:26:31.877Z,1001.8
2017-02-22T01:26:41.578Z,1001.79
2017-02-22T01:26:51.148Z,1001.83
2017-02-22T01:27:01.567Z,1001.83
2017-02-22T01:27:11.561Z,1001.84
2017-02-22T01:27:21.549Z,1001.83
2017-02-22T01:27:31.545Z,1001.81
2017-02-22T01:27:41.539Z,1001.87
2017-02-22T01:27:51.113Z,1001.84
2017-02-22T01:28:01.797Z,1001.86
2017-02-22T01:28:11.522Z,1001.86
2017-02-22T01:28:21.519Z,1001.84
2017-02-22T01:28:31.503Z,1001.8
2017-02-22T01:28:41.504Z,1001.82
2017-02-22T01:28:51.211Z,1001.9
2017-02-22T01:29:01.072Z,1001.82
2017-02-22T01:29:11.498Z,1001.8
2017-02-22T01:29:21.091Z,1001.86
2017-02-22T01:29:31.478Z,1001.78
2017-02-22T01:29:41.469Z,1001.79
2017-02-22T01:29:51.481Z,1001.85
2017-02-22T01:30:01.467Z,1001.81
2017-02-22T01:30:11.468Z,1001.84
2017-02-22T01:30:21.449Z,1001.84
2017-02-22T01:30:31.451Z,1001.9
2017-02-22T01:30:41.447Z,1001.85
2017-02-22T01:30:51.447Z,1001.92
2017-02-22T01:31:01.414Z,1001.86
2017-02-22T01:31:11.408Z,1001.89
2017-02-22T01:31:21.401Z,1001.82
2017-02-22T01:31:31.398Z,1001.87
2017-02-22T01:31:41.406Z,1001.84
2017-02-22T01:31:51.394Z,1001.8
2017-02-22T01:32:01.666Z,1001.86
2017-02-22T01:32:11.380Z,1001.78
2017-02-22T01:32:21.390Z,1001.84
2017-02-22T01:32:31.379Z,1001.82
2017-02-22T01:32:41.364Z,1001.81
2017-02-22T01:32:51.358Z,1001.84
2017-02-22T01:33:01.629Z,1001.84
2017-02-22T01:33:11.352Z,1001.88
2017-02-22T01:33:20.926Z,1001.85
2017-02-22T01:33:30.911Z,1001.78
2017-02-22T01:33:41.330Z,1001.83
2017-02-22T01:33:51.321Z,1001.92
2017-02-22T01:34:01.309Z,1001.77
2017-02-22T01:34:11.313Z,1001.74
2017-02-22T01:34:21.568Z,1001.76
2017-02-22T01:34:31.289Z,1001.82
2017-02-22T01:34:41.285Z,1001.76
2017-02-22T01:34:51.294Z,1001.86
2017-02-22T01:35:01.287Z,1001.84
2017-02-22T01:35:11.269Z,1001.81
2017-02-22T01:35:21.266Z,1001.89
2017-02-22T01:35:31.265Z,1001.77
2017-02-22T01:35:41.246Z,1001.81
2017-02-22T01:35:51.248Z,1001.81
2017-02-22T01:36:01.534Z,1001.84
2017-02-22T01:36:11.226Z,1001.77
2017-02-22T01:36:21.222Z,1001.84
2017-02-22T01:36:31.220Z,1001.82
2017-02-22T01:36:41.215Z,1001.76
2017-02-22T01:36:51.214Z,1001.74
2017-02-22T01:37:01.217Z,1001.8
2017-02-22T01:37:10.361Z,1001.83
2017-02-22T01:37:21.194Z,1001.88
2017-02-22T01:37:31.186Z,1001.83
2017-02-22T01:37:41.180Z,1001.74
2017-02-22T01:37:51.170Z,1001.77
2017-02-22T01:38:01.161Z,1001.79
2017-02-22T01:38:11.165Z,1001.77
2017-02-22T01:38:21.429Z,1001.73
2017-02-22T01:38:31.151Z,1001.74
2017-02-22T01:38:41.149Z,1001.76
2017-02-22T01:38:50.730Z,1001.79
2017-02-22T01:39:01.131Z,1001.74
2017-02-22T01:39:11.128Z,1001.75
2017-02-22T01:39:21.118Z,1001.74
2017-02-22T01:39:31.127Z,1001.81
2017-02-22T01:39:41.106Z,1001.78
2017-02-22T01:39:51.096Z,1001.77
2017-02-22T01:40:01.105Z,1001.72
2017-02-22T01:40:10.672Z,1001.72
2017-02-22T01:40:21.081Z,1001.75
2017-02-22T01:40:31.359Z,1001.75
2017-02-22T01:40:41.083Z,1001.72
2017-02-22T01:40:51.064Z,1001.83
2017-02-22T01:41:01.077Z,1001.82
2017-02-22T01:41:10.631Z,1001.7
2017-02-22T01:41:20.634Z,1001.8
2017-02-22T01:41:31.050Z,1001.72
2017-02-22T01:41:41.329Z,1001.66
2017-02-22T01:41:51.031Z,1001.67
2017-02-22T01:42:01.024Z,1001.75
2017-02-22T01:42:11.025Z,1001.7
2017-02-22T01:42:21.011Z,1001.67
2017-02-22T01:42:31.012Z,1001.75
2017-02-22T01:42:41.015Z,1001.68
2017-02-22T01:42:50.994Z,1001.68
2017-02-22T01:43:00.988Z,1001.84
2017-02-22T01:43:10.979Z,1001.58
2017-02-22T01:43:20.988Z,1001.66
2017-02-22T01:43:30.976Z,1001.75
2017-02-22T01:43:40.982Z,1001.73
2017-02-22T01:43:51.234Z,1001.57
2017-02-22T01:44:00.949Z,1001.74
2017-02-22T01:44:10.944Z,1001.7
2017-02-22T01:44:20.661Z,1001.63
2017-02-22T01:44:30.934Z,1001.68
2017-02-22T01:44:40.934Z,1001.61
2017-02-22T01:44:50.918Z,1001.67
2017-02-22T01:45:01.211Z,1001.63
2017-02-22T01:45:10.913Z,1001.61
2017-02-22T01:45:20.916Z,1001.62
2017-02-22T01:45:30.757Z,1001.61
2017-02-22T01:45:41.182Z,1001.65
2017-02-22T01:45:50.883Z,1001.65
2017-02-22T01:46:00.875Z,1001.66
2017-02-22T01:46:10.874Z,1001.68
2017-02-22T01:46:20.864Z,1001.68
2017-02-22T01:46:30.874Z,1001.76
2017-02-22T01:46:40.865Z,1001.76
2017-02-22T01:46:50.857Z,1001.58
2017-02-22T01:47:00.847Z,1001.59
2017-02-22T01:47:10.421Z,1001.57
2017-02-22T01:47:20.408Z,1001.58
2017-02-22T01:47:30.692Z,1001.58
2017-02-22T01:47:40.822Z,1001.56
2017-02-22T01:47:50.813Z,1001.7
2017-02-22T01:48:00.810Z,1001.63
2017-02-22T01:48:09.969Z,1001.65
2017-02-22T01:48:20.389Z,1001.59
2017-02-22T01:48:30.797Z,1001.52
2017-02-22T01:48:40.795Z,1001.55
2017-02-22T01:48:50.773Z,1001.65
2017-02-22T01:49:00.772Z,1001.69
2017-02-22T01:49:10.776Z,1001.59
2017-02-22T01:49:20.758Z,1001.63
2017-02-22T01:49:30.755Z,1001.65
2017-02-22T01:49:40.760Z,1001.58
2017-02-22T01:49:50.737Z,1001.62
2017-02-22T01:50:00.741Z,1001.62
2017-02-22T01:50:10.735Z,1001.65
2017-02-22T01:50:20.307Z,1001.63
2017-02-22T01:50:30.719Z,1001.57
2017-02-22T01:50:40.981Z,1001.7
2017-02-22T01:50:50.719Z,1001.68
2017-02-22T01:51:00.707Z,1001.63
2017-02-22T01:51:10.710Z,1001.57
2017-02-22T01:51:20.268Z,1001.66
2017-02-22T01:51:30.678Z,1001.72
2017-02-22T01:51:40.671Z,1001.68
2017-02-22T01:51:50.667Z,1001.68
2017-02-22T01:52:00.664Z,1001.7
2017-02-22T01:52:10.674Z,1001.68
2017-02-22T01:52:20.667Z,1001.61
2017-02-22T01:52:30.648Z,1001.65
2017-02-22T01:52:40.651Z,1001.63
2017-02-22T01:52:50.637Z,1001.64
2017-02-22T01:53:00.638Z,1001.73
2017-02-22T01:53:10.621Z,1001.75
2017-02-22T01:53:20.620Z,1001.59
2017-02-22T01:53:30.608Z,1001.65
2017-02-22T01:53:40.601Z,1001.69
2017-02-22T01:53:50.197Z,1001.73
2017-02-22T01:54:00.592Z,1001.73
2017-02-22T01:54:10.584Z,1001.66
2017-02-22T01:54:20.579Z,1001.65
2017-02-22T01:54:30.585Z,1001.59
2017-02-22T01:54:40.566Z,1001.61
2017-02-22T01:54:50.572Z,1001.58
2017-02-22T01:55:00.564Z,1001.58
2017-02-22T01:55:10.554Z,1001.46
2017-02-22T01:55:20.123Z,1001.52
2017-02-22T01:55:30.543Z,1001.55
2017-02-22T01:55:40.534Z,1001.51
2017-02-22T01:55:50.523Z,1001.5
2017-02-22T01:56:00.531Z,1001.57
2017-02-22T01:56:10.517Z,1001.56
2017-02-22T01:56:20.089Z,1001.49
2017-02-22T01:56:30.500Z,1001.58
2017-02-22T01:56:40.208Z,1001.55
2017-02-22T01:56:50.495Z,1001.61
2017-02-22T01:57:00.485Z,1001.57
2017-02-22T01:57:10.480Z,1001.53
2017-02-22T01:57:20.471Z,1001.55
2017-02-22T01:57:30.467Z,1001.58
2017-02-22T01:57:40.464Z,1001.63
2017-02-22T01:57:50.457Z,1001.52
2017-02-22T01:58:00.446Z,1001.54
2017-02-22T01:58:10.439Z,1001.55
2017-02-22T01:58:20.465Z,1001.56
2017-02-22T01:58:30.428Z,1001.6
2017-02-22T01:58:40.431Z,1001.48
2017-02-22T01:58:50.425Z,1001.58
2017-02-22T01:59:00.411Z,1001.56
2017-02-22T01:59:10.405Z,1001.51
2017-02-22T01:59:20.397Z,1001.53
2017-02-22T01:59:30.406Z,1001.59
2017-02-22T01:59:40.390Z,1001.57
2017-02-22T01:59:50.398Z,1001.56
2017-02-22T02:00:00.376Z,1001.55
2017-02-22T02:00:09.955Z,1001.61
2017-02-22T02:00:20.653Z,1001.54
2017-02-22T02:00:30.362Z,1001.61
2017-02-22T02:00:40.348Z,1001.5
2017-02-22T02:00:50.348Z,1001.56
2017-02-22T02:01:00.341Z,1001.5
2017-02-22T02:01:10.337Z,1001.51
2017-02-22T02:01:20.182Z,1001.58
2017-02-22T02:01:30.320Z,1001.59
2017-02-22T02:01:40.321Z,1001.53
2017-02-22T02:01:49.894Z,1001.52
2017-02-22T02:02:00.310Z,1001.52
2017-02-22T02:02:10.303Z,1001.52